sensor_id;sensor_type;location;lat;lon;timestamp;P1;durP1;ratioP1;P2;durP2;ratioP2
14760;SDS011;7472;45.396;5.272;2022-08-23T00:00:47;1.05;;;0.70;;
14760;SDS011;7472;45.396;5.272;2022-08-23T00:03:16;1.05;;;0.75;;
14760;SDS011;7472;45.396;5.272;2022-08-23T00:05:43;2.55;;;0.90;;
14760;SDS011;7472;45.396;5.272;2022-08-23T00:08:11;1.88;;;0.82;;
14760;SDS011;7472;45.396;5.272;2022-08-23T00:10:38;1.60;;;0.82;;
14760;SDS011;7472;45.396;5.272;2022-08-23T00:13:06;1.42;;;0.75;;
14760;SDS011;7472;45.396;5.272;2022-08-23T00:15:34;1.52;;;1.00;;
14760;SDS011;7472;45.396;5.272;2022-08-23T00:18:01;1.38;;;0.80;;
14760;SDS011;7472;45.396;5.272;2022-08-23T00:20:30;1.15;;;0.98;;
14760;SDS011;7472;45.396;5.272;2022-08-23T00:22:57;0.93;;;0.80;;
14760;SDS011;7472;45.396;5.272;2022-08-23T00:25:25;1.38;;;0.70;;
14760;SDS011;7472;45.396;5.272;2022-08-23T00:27:52;1.90;;;0.90;;
14760;SDS011;7472;45.396;5.272;2022-08-23T00:30:20;1.45;;;0.90;;
14760;SDS011;7472;45.396;5.272;2022-08-23T00:32:47;4.28;;;0.85;;
14760;SDS011;7472;45.396;5.272;2022-08-23T00:35:15;1.15;;;0.80;;
14760;SDS011;7472;45.396;5.272;2022-08-23T00:37:44;1.17;;;0.82;;
14760;SDS011;7472;45.396;5.272;2022-08-23T00:40:12;1.60;;;0.80;;
14760;SDS011;7472;45.396;5.272;2022-08-23T00:42:41;3.17;;;0.98;;
14760;SDS011;7472;45.396;5.272;2022-08-23T00:45:37;2.47;;;0.95;;
14760;SDS011;7472;45.396;5.272;2022-08-23T00:48:23;2.13;;;1.08;;
14760;SDS011;7472;45.396;5.272;2022-08-23T00:50:51;1.00;;;0.88;;
14760;SDS011;7472;45.396;5.272;2022-08-23T00:53:22;1.67;;;0.98;;
14760;SDS011;7472;45.396;5.272;2022-08-23T00:55:51;3.83;;;0.90;;
14760;SDS011;7472;45.396;5.272;2022-08-23T00:58:20;2.25;;;0.82;;
14760;SDS011;7472;45.396;5.272;2022-08-23T01:00:48;2.08;;;1.00;;
14760;SDS011;7472;45.396;5.272;2022-08-23T01:03:16;1.38;;;1.20;;
14760;SDS011;7472;45.396;5.272;2022-08-23T01:05:45;3.33;;;1.20;;
14760;SDS011;7472;45.396;5.272;2022-08-23T01:08:13;1.80;;;0.98;;
14760;SDS011;7472;45.396;5.272;2022-08-23T01:10:42;1.08;;;0.70;;
14760;SDS011;7472;45.396;5.272;2022-08-23T01:13:12;1.75;;;1.13;;
14760;SDS011;7472;45.396;5.272;2022-08-23T01:15:41;2.08;;;1.05;;
14760;SDS011;7472;45.396;5.272;2022-08-23T01:18:10;1.67;;;1.10;;
14760;SDS011;7472;45.396;5.272;2022-08-23T01:20:40;0.93;;;0.82;;
14760;SDS011;7472;45.396;5.272;2022-08-23T01:23:18;1.45;;;0.70;;
14760;SDS011;7472;45.396;5.272;2022-08-23T01:25:46;3.47;;;1.00;;
14760;SDS011;7472;45.396;5.272;2022-08-23T01:28:14;1.05;;;0.95;;
14760;SDS011;7472;45.396;5.272;2022-08-23T01:30:42;1.65;;;0.82;;
14760;SDS011;7472;45.396;5.272;2022-08-23T01:33:10;1.85;;;1.33;;
14760;SDS011;7472;45.396;5.272;2022-08-23T01:35:38;1.42;;;1.10;;
14760;SDS011;7472;45.396;5.272;2022-08-23T01:38:06;1.17;;;0.90;;
14760;SDS011;7472;45.396;5.272;2022-08-23T01:40:35;1.65;;;1.05;;
14760;SDS011;7472;45.396;5.272;2022-08-23T01:43:03;1.33;;;0.95;;
14760;SDS011;7472;45.396;5.272;2022-08-23T01:45:31;1.77;;;1.00;;
14760;SDS011;7472;45.396;5.272;2022-08-23T01:47:59;1.55;;;1.10;;
14760;SDS011;7472;45.396;5.272;2022-08-23T01:50:27;2.75;;;1.15;;
14760;SDS011;7472;45.396;5.272;2022-08-23T01:52:54;2.17;;;1.02;;
14760;SDS011;7472;45.396;5.272;2022-08-23T01:55:22;3.17;;;1.13;;
14760;SDS011;7472;45.396;5.272;2022-08-23T01:57:51;1.77;;;1.00;;
14760;SDS011;7472;45.396;5.272;2022-08-23T02:00:20;1.38;;;0.63;;
14760;SDS011;7472;45.396;5.272;2022-08-23T02:02:48;3.13;;;1.20;;
14760;SDS011;7472;45.396;5.272;2022-08-23T02:05:16;1.35;;;1.17;;
14760;SDS011;7472;45.396;5.272;2022-08-23T02:07:44;1.17;;;0.98;;
14760;SDS011;7472;45.396;5.272;2022-08-23T02:10:12;2.92;;;1.30;;
14760;SDS011;7472;45.396;5.272;2022-08-23T02:12:39;2.85;;;1.15;;
14760;SDS011;7472;45.396;5.272;2022-08-23T02:15:08;2.38;;;1.02;;
14760;SDS011;7472;45.396;5.272;2022-08-23T02:17:36;1.45;;;0.93;;
14760;SDS011;7472;45.396;5.272;2022-08-23T02:20:04;3.50;;;1.67;;
14760;SDS011;7472;45.396;5.272;2022-08-23T02:22:32;1.50;;;0.93;;
14760;SDS011;7472;45.396;5.272;2022-08-23T02:24:59;0.90;;;0.80;;
14760;SDS011;7472;45.396;5.272;2022-08-23T02:27:27;1.20;;;1.10;;
14760;SDS011;7472;45.396;5.272;2022-08-23T02:29:54;2.08;;;1.40;;
14760;SDS011;7472;45.396;5.272;2022-08-23T02:32:23;4.47;;;1.58;;
14760;SDS011;7472;45.396;5.272;2022-08-23T02:34:51;1.15;;;1.02;;
14760;SDS011;7472;45.396;5.272;2022-08-23T02:37:18;3.05;;;0.93;;
14760;SDS011;7472;45.396;5.272;2022-08-23T02:39:46;2.97;;;1.05;;
14760;SDS011;7472;45.396;5.272;2022-08-23T02:42:13;1.55;;;1.17;;
14760;SDS011;7472;45.396;5.272;2022-08-23T02:44:41;3.28;;;1.10;;
14760;SDS011;7472;45.396;5.272;2022-08-23T02:47:09;2.30;;;1.33;;
14760;SDS011;7472;45.396;5.272;2022-08-23T02:49:38;1.60;;;1.10;;
14760;SDS011;7472;45.396;5.272;2022-08-23T02:52:05;2.55;;;1.20;;
14760;SDS011;7472;45.396;5.272;2022-08-23T02:54:33;4.13;;;1.27;;
14760;SDS011;7472;45.396;5.272;2022-08-23T02:57:01;3.13;;;1.30;;
14760;SDS011;7472;45.396;5.272;2022-08-23T02:59:28;1.55;;;0.98;;
14760;SDS011;7472;45.396;5.272;2022-08-23T03:01:56;2.17;;;1.20;;
14760;SDS011;7472;45.396;5.272;2022-08-23T03:04:23;3.30;;;1.23;;
14760;SDS011;7472;45.396;5.272;2022-08-23T03:06:52;3.17;;;1.15;;
14760;SDS011;7472;45.396;5.272;2022-08-23T03:09:19;1.45;;;1.10;;
14760;SDS011;7472;45.396;5.272;2022-08-23T03:11:47;3.03;;;1.35;;
14760;SDS011;7472;45.396;5.272;2022-08-23T03:14:15;1.85;;;1.40;;
14760;SDS011;7472;45.396;5.272;2022-08-23T03:16:42;4.63;;;1.35;;
14760;SDS011;7472;45.396;5.272;2022-08-23T03:19:10;1.10;;;1.00;;
14760;SDS011;7472;45.396;5.272;2022-08-23T03:21:37;2.03;;;1.20;;
14760;SDS011;7472;45.396;5.272;2022-08-23T03:24:08;1.88;;;1.00;;
14760;SDS011;7472;45.396;5.272;2022-08-23T03:26:36;3.35;;;1.30;;
14760;SDS011;7472;45.396;5.272;2022-08-23T03:29:03;1.60;;;1.20;;
14760;SDS011;7472;45.396;5.272;2022-08-23T03:31:30;2.60;;;1.27;;
14760;SDS011;7472;45.396;5.272;2022-08-23T03:33:58;4.78;;;1.10;;
14760;SDS011;7472;45.396;5.272;2022-08-23T03:36:25;2.45;;;1.10;;
14760;SDS011;7472;45.396;5.272;2022-08-23T03:38:52;1.98;;;1.23;;
14760;SDS011;7472;45.396;5.272;2022-08-23T03:41:21;4.55;;;1.30;;
14760;SDS011;7472;45.396;5.272;2022-08-23T03:43:49;2.58;;;1.50;;
14760;SDS011;7472;45.396;5.272;2022-08-23T03:46:17;4.65;;;1.52;;
14760;SDS011;7472;45.396;5.272;2022-08-23T03:48:49;3.50;;;2.00;;
14760;SDS011;7472;45.396;5.272;2022-08-23T03:51:16;2.78;;;1.17;;
14760;SDS011;7472;45.396;5.272;2022-08-23T03:53:44;4.88;;;1.50;;
14760;SDS011;7472;45.396;5.272;2022-08-23T03:56:19;3.25;;;1.13;;
14760;SDS011;7472;45.396;5.272;2022-08-23T03:58:48;1.45;;;1.17;;
14760;SDS011;7472;45.396;5.272;2022-08-23T04:01:16;1.65;;;1.20;;
14760;SDS011;7472;45.396;5.272;2022-08-23T04:03:43;1.80;;;1.25;;
14760;SDS011;7472;45.396;5.272;2022-08-23T04:06:11;2.50;;;1.00;;
14760;SDS011;7472;45.396;5.272;2022-08-23T04:08:38;1.38;;;1.17;;
14760;SDS011;7472;45.396;5.272;2022-08-23T04:11:06;1.33;;;1.23;;
14760;SDS011;7472;45.396;5.272;2022-08-23T04:13:33;4.07;;;1.58;;
14760;SDS011;7472;45.396;5.272;2022-08-23T04:16:02;2.65;;;1.38;;
14760;SDS011;7472;45.396;5.272;2022-08-23T04:18:30;1.30;;;1.20;;
14760;SDS011;7472;45.396;5.272;2022-08-23T04:20:58;1.50;;;1.30;;
14760;SDS011;7472;45.396;5.272;2022-08-23T04:23:26;1.55;;;1.20;;
14760;SDS011;7472;45.396;5.272;2022-08-23T04:25:54;1.77;;;1.30;;
14760;SDS011;7472;45.396;5.272;2022-08-23T04:28:22;4.53;;;1.48;;
14760;SDS011;7472;45.396;5.272;2022-08-23T04:30:49;3.05;;;1.13;;
14760;SDS011;7472;45.396;5.272;2022-08-23T04:33:18;1.73;;;1.30;;
14760;SDS011;7472;45.396;5.272;2022-08-23T04:35:46;1.55;;;1.23;;
14760;SDS011;7472;45.396;5.272;2022-08-23T04:38:13;1.67;;;1.58;;
14760;SDS011;7472;45.396;5.272;2022-08-23T04:40:41;2.72;;;1.35;;
14760;SDS011;7472;45.396;5.272;2022-08-23T04:43:26;1.30;;;1.20;;
14760;SDS011;7472;45.396;5.272;2022-08-23T04:45:54;3.00;;;1.27;;
14760;SDS011;7472;45.396;5.272;2022-08-23T04:48:23;2.75;;;1.42;;
14760;SDS011;7472;45.396;5.272;2022-08-23T04:50:50;1.67;;;1.48;;
14760;SDS011;7472;45.396;5.272;2022-08-23T04:53:17;3.67;;;1.75;;
14760;SDS011;7472;45.396;5.272;2022-08-23T04:55:45;2.35;;;1.55;;
14760;SDS011;7472;45.396;5.272;2022-08-23T04:58:13;1.75;;;1.65;;
14760;SDS011;7472;45.396;5.272;2022-08-23T05:00:41;2.85;;;1.80;;
14760;SDS011;7472;45.396;5.272;2022-08-23T05:03:08;2.55;;;1.40;;
14760;SDS011;7472;45.396;5.272;2022-08-23T05:05:37;3.15;;;1.52;;
14760;SDS011;7472;45.396;5.272;2022-08-23T05:08:06;2.28;;;1.60;;
14760;SDS011;7472;45.396;5.272;2022-08-23T05:10:33;2.42;;;1.88;;
14760;SDS011;7472;45.396;5.272;2022-08-23T05:13:01;2.00;;;1.40;;
14760;SDS011;7472;45.396;5.272;2022-08-23T05:15:28;3.85;;;1.75;;
14760;SDS011;7472;45.396;5.272;2022-08-23T05:17:56;2.05;;;1.42;;
14760;SDS011;7472;45.396;5.272;2022-08-23T05:20:23;1.75;;;1.25;;
14760;SDS011;7472;45.396;5.272;2022-08-23T05:22:52;1.50;;;1.35;;
14760;SDS011;7472;45.396;5.272;2022-08-23T05:25:20;1.65;;;1.33;;
14760;SDS011;7472;45.396;5.272;2022-08-23T05:27:47;3.58;;;1.65;;
14760;SDS011;7472;45.396;5.272;2022-08-23T05:30:15;3.13;;;2.00;;
14760;SDS011;7472;45.396;5.272;2022-08-23T05:32:42;3.80;;;1.42;;
14760;SDS011;7472;45.396;5.272;2022-08-23T05:35:10;3.65;;;1.60;;
14760;SDS011;7472;45.396;5.272;2022-08-23T05:37:37;2.17;;;1.48;;
14760;SDS011;7472;45.396;5.272;2022-08-23T05:40:06;1.70;;;1.30;;
14760;SDS011;7472;45.396;5.272;2022-08-23T05:42:35;2.10;;;1.52;;
14760;SDS011;7472;45.396;5.272;2022-08-23T05:45:02;1.85;;;1.40;;
14760;SDS011;7472;45.396;5.272;2022-08-23T05:47:30;2.88;;;1.30;;
14760;SDS011;7472;45.396;5.272;2022-08-23T05:49:57;3.40;;;1.25;;
14760;SDS011;7472;45.396;5.272;2022-08-23T05:52:25;2.10;;;1.30;;
14760;SDS011;7472;45.396;5.272;2022-08-23T05:54:52;2.65;;;1.55;;
14760;SDS011;7472;45.396;5.272;2022-08-23T05:57:21;3.20;;;1.65;;
14760;SDS011;7472;45.396;5.272;2022-08-23T05:59:49;1.58;;;1.27;;
14760;SDS011;7472;45.396;5.272;2022-08-23T06:02:16;5.28;;;1.70;;
14760;SDS011;7472;45.396;5.272;2022-08-23T06:04:43;3.53;;;1.40;;
14760;SDS011;7472;45.396;5.272;2022-08-23T06:07:11;1.20;;;1.10;;
14760;SDS011;7472;45.396;5.272;2022-08-23T06:09:38;2.20;;;1.35;;
14760;SDS011;7472;45.396;5.272;2022-08-23T06:12:06;3.70;;;1.40;;
14760;SDS011;7472;45.396;5.272;2022-08-23T06:14:35;2.38;;;1.35;;
14760;SDS011;7472;45.396;5.272;2022-08-23T06:17:02;2.97;;;1.40;;
14760;SDS011;7472;45.396;5.272;2022-08-23T06:19:29;3.40;;;1.15;;
14760;SDS011;7472;45.396;5.272;2022-08-23T06:21:57;2.30;;;1.40;;
14760;SDS011;7472;45.396;5.272;2022-08-23T06:24:24;2.22;;;1.20;;
14760;SDS011;7472;45.396;5.272;2022-08-23T06:26:52;2.80;;;1.35;;
14760;SDS011;7472;45.396;5.272;2022-08-23T06:29:20;5.80;;;1.70;;
14760;SDS011;7472;45.396;5.272;2022-08-23T06:31:49;1.80;;;1.10;;
14760;SDS011;7472;45.396;5.272;2022-08-23T06:34:19;2.20;;;1.25;;
14760;SDS011;7472;45.396;5.272;2022-08-23T06:36:47;4.25;;;1.33;;
14760;SDS011;7472;45.396;5.272;2022-08-23T06:39:16;4.13;;;1.80;;
14760;SDS011;7472;45.396;5.272;2022-08-23T06:41:43;2.00;;;1.50;;
14760;SDS011;7472;45.396;5.272;2022-08-23T06:44:12;3.83;;;1.13;;
14760;SDS011;7472;45.396;5.272;2022-08-23T06:46:40;2.85;;;1.30;;
14760;SDS011;7472;45.396;5.272;2022-08-23T06:49:09;10.15;;;1.67;;
14760;SDS011;7472;45.396;5.272;2022-08-23T06:51:37;2.80;;;1.20;;
14760;SDS011;7472;45.396;5.272;2022-08-23T06:54:06;2.95;;;1.60;;
14760;SDS011;7472;45.396;5.272;2022-08-23T06:56:33;2.40;;;1.27;;
14760;SDS011;7472;45.396;5.272;2022-08-23T06:59:02;4.07;;;2.03;;
14760;SDS011;7472;45.396;5.272;2022-08-23T07:01:31;1.77;;;1.50;;
14760;SDS011;7472;45.396;5.272;2022-08-23T07:03:59;3.78;;;1.20;;
14760;SDS011;7472;45.396;5.272;2022-08-23T07:06:28;4.53;;;1.63;;
14760;SDS011;7472;45.396;5.272;2022-08-23T07:08:56;1.65;;;1.30;;
14760;SDS011;7472;45.396;5.272;2022-08-23T07:11:24;3.10;;;1.42;;
14760;SDS011;7472;45.396;5.272;2022-08-23T07:13:51;1.80;;;1.40;;
14760;SDS011;7472;45.396;5.272;2022-08-23T07:16:19;2.42;;;1.48;;
14760;SDS011;7472;45.396;5.272;2022-08-23T07:18:46;1.80;;;1.30;;
14760;SDS011;7472;45.396;5.272;2022-08-23T07:21:15;3.08;;;1.55;;
14760;SDS011;7472;45.396;5.272;2022-08-23T07:23:45;2.95;;;1.58;;
14760;SDS011;7472;45.396;5.272;2022-08-23T07:26:13;3.05;;;1.55;;
14760;SDS011;7472;45.396;5.272;2022-08-23T07:28:41;1.70;;;1.13;;
14760;SDS011;7472;45.396;5.272;2022-08-23T07:31:09;2.08;;;1.60;;
14760;SDS011;7472;45.396;5.272;2022-08-23T07:33:37;4.80;;;1.40;;
14760;SDS011;7472;45.396;5.272;2022-08-23T07:36:05;2.70;;;1.40;;
14760;SDS011;7472;45.396;5.272;2022-08-23T07:38:33;1.52;;;1.27;;
14760;SDS011;7472;45.396;5.272;2022-08-23T07:41:02;3.88;;;1.25;;
14760;SDS011;7472;45.396;5.272;2022-08-23T07:43:30;3.83;;;1.60;;
14760;SDS011;7472;45.396;5.272;2022-08-23T07:45:57;5.22;;;1.58;;
14760;SDS011;7472;45.396;5.272;2022-08-23T07:48:25;4.75;;;1.88;;
14760;SDS011;7472;45.396;5.272;2022-08-23T07:50:52;2.35;;;1.45;;
14760;SDS011;7472;45.396;5.272;2022-08-23T07:53:21;4.57;;;1.90;;
14760;SDS011;7472;45.396;5.272;2022-08-23T07:55:49;3.15;;;1.63;;
14760;SDS011;7472;45.396;5.272;2022-08-23T07:58:17;5.13;;;1.85;;
14760;SDS011;7472;45.396;5.272;2022-08-23T08:00:45;2.72;;;1.50;;
14760;SDS011;7472;45.396;5.272;2022-08-23T08:03:13;3.65;;;1.70;;
14760;SDS011;7472;45.396;5.272;2022-08-23T08:05:41;2.40;;;1.60;;
14760;SDS011;7472;45.396;5.272;2022-08-23T08:08:09;3.10;;;1.52;;
14760;SDS011;7472;45.396;5.272;2022-08-23T08:10:37;3.20;;;1.90;;
14760;SDS011;7472;45.396;5.272;2022-08-23T08:13:05;3.55;;;1.50;;
14760;SDS011;7472;45.396;5.272;2022-08-23T08:15:38;2.72;;;1.42;;
14760;SDS011;7472;45.396;5.272;2022-08-23T08:18:06;2.45;;;1.85;;
14760;SDS011;7472;45.396;5.272;2022-08-23T08:20:33;3.08;;;1.42;;
14760;SDS011;7472;45.396;5.272;2022-08-23T08:23:01;4.85;;;1.63;;
14760;SDS011;7472;45.396;5.272;2022-08-23T08:25:31;3.45;;;1.75;;
14760;SDS011;7472;45.396;5.272;2022-08-23T08:27:59;2.53;;;1.73;;
14760;SDS011;7472;45.396;5.272;2022-08-23T08:30:27;2.15;;;1.58;;
14760;SDS011;7472;45.396;5.272;2022-08-23T08:32:56;3.58;;;2.00;;
14760;SDS011;7472;45.396;5.272;2022-08-23T08:35:23;2.10;;;1.70;;
14760;SDS011;7472;45.396;5.272;2022-08-23T08:37:51;2.65;;;1.70;;
14760;SDS011;7472;45.396;5.272;2022-08-23T08:40:19;5.10;;;1.83;;
14760;SDS011;7472;45.396;5.272;2022-08-23T08:43:00;2.83;;;1.98;;
14760;SDS011;7472;45.396;5.272;2022-08-23T08:45:31;2.28;;;1.67;;
14760;SDS011;7472;45.396;5.272;2022-08-23T08:48:07;3.80;;;1.90;;
14760;SDS011;7472;45.396;5.272;2022-08-23T08:50:36;3.60;;;1.80;;
14760;SDS011;7472;45.396;5.272;2022-08-23T08:53:05;7.55;;;1.98;;
14760;SDS011;7472;45.396;5.272;2022-08-23T08:55:36;4.15;;;1.83;;
14760;SDS011;7472;45.396;5.272;2022-08-23T08:58:10;2.83;;;1.60;;
14760;SDS011;7472;45.396;5.272;2022-08-23T09:00:41;2.05;;;1.45;;
14760;SDS011;7472;45.396;5.272;2022-08-23T09:03:13;2.45;;;1.27;;
14760;SDS011;7472;45.396;5.272;2022-08-23T09:05:46;4.00;;;2.03;;
14760;SDS011;7472;45.396;5.272;2022-08-23T09:08:19;1.77;;;1.30;;
14760;SDS011;7472;45.396;5.272;2022-08-23T09:10:52;3.15;;;2.03;;
14760;SDS011;7472;45.396;5.272;2022-08-23T09:16:08;6.38;;;2.00;;
14760;SDS011;7472;45.396;5.272;2022-08-23T09:18:40;4.55;;;1.95;;
14760;SDS011;7472;45.396;5.272;2022-08-23T09:21:08;2.13;;;1.60;;
14760;SDS011;7472;45.396;5.272;2022-08-23T09:23:38;5.50;;;2.03;;
14760;SDS011;7472;45.396;5.272;2022-08-23T09:26:15;4.60;;;1.70;;
14760;SDS011;7472;45.396;5.272;2022-08-23T09:28:43;4.60;;;1.90;;
14760;SDS011;7472;45.396;5.272;2022-08-23T09:31:12;4.43;;;2.08;;
14760;SDS011;7472;45.396;5.272;2022-08-23T09:34:02;1.63;;;1.50;;
14760;SDS011;7472;45.396;5.272;2022-08-23T09:36:31;6.00;;;1.80;;
14760;SDS011;7472;45.396;5.272;2022-08-23T09:39:00;2.85;;;1.70;;
14760;SDS011;7472;45.396;5.272;2022-08-23T09:41:31;3.20;;;2.00;;
14760;SDS011;7472;45.396;5.272;2022-08-23T09:44:01;3.90;;;1.58;;
14760;SDS011;7472;45.396;5.272;2022-08-23T09:46:30;3.53;;;1.73;;
14760;SDS011;7472;45.396;5.272;2022-08-23T09:49:06;3.25;;;1.73;;
14760;SDS011;7472;45.396;5.272;2022-08-23T09:51:47;1.88;;;1.60;;
14760;SDS011;7472;45.396;5.272;2022-08-23T09:54:17;6.95;;;1.73;;
14760;SDS011;7472;45.396;5.272;2022-08-23T09:56:49;2.28;;;1.63;;
14760;SDS011;7472;45.396;5.272;2022-08-23T09:59:19;2.70;;;1.70;;
14760;SDS011;7472;45.396;5.272;2022-08-23T10:01:49;2.22;;;1.98;;
14760;SDS011;7472;45.396;5.272;2022-08-23T10:04:25;6.15;;;2.17;;
14760;SDS011;7472;45.396;5.272;2022-08-23T10:06:57;3.65;;;1.67;;
14760;SDS011;7472;45.396;5.272;2022-08-23T10:09:26;3.72;;;1.75;;
14760;SDS011;7472;45.396;5.272;2022-08-23T10:11:55;5.85;;;2.22;;
14760;SDS011;7472;45.396;5.272;2022-08-23T10:14:24;5.30;;;1.80;;
14760;SDS011;7472;45.396;5.272;2022-08-23T10:16:56;4.60;;;1.85;;
14760;SDS011;7472;45.396;5.272;2022-08-23T10:19:29;5.70;;;1.95;;
14760;SDS011;7472;45.396;5.272;2022-08-23T10:22:01;7.05;;;2.00;;
14760;SDS011;7472;45.396;5.272;2022-08-23T10:24:36;4.53;;;1.77;;
14760;SDS011;7472;45.396;5.272;2022-08-23T10:27:12;4.28;;;1.60;;
14760;SDS011;7472;45.396;5.272;2022-08-23T10:30:02;3.38;;;1.65;;
14760;SDS011;7472;45.396;5.272;2022-08-23T10:32:35;3.40;;;1.70;;
14760;SDS011;7472;45.396;5.272;2022-08-23T10:35:17;2.40;;;1.60;;
14760;SDS011;7472;45.396;5.272;2022-08-23T10:37:51;3.85;;;1.70;;
14760;SDS011;7472;45.396;5.272;2022-08-23T10:40:23;2.50;;;2.03;;
14760;SDS011;7472;45.396;5.272;2022-08-23T10:42:55;2.65;;;1.50;;
14760;SDS011;7472;45.396;5.272;2022-08-23T10:45:29;5.30;;;2.15;;
14760;SDS011;7472;45.396;5.272;2022-08-23T10:48:05;2.35;;;2.15;;
14760;SDS011;7472;45.396;5.272;2022-08-23T10:50:40;4.47;;;1.80;;
14760;SDS011;7472;45.396;5.272;2022-08-23T10:53:10;2.88;;;1.63;;
14760;SDS011;7472;45.396;5.272;2022-08-23T10:55:42;6.47;;;2.28;;
14760;SDS011;7472;45.396;5.272;2022-08-23T10:58:28;2.72;;;1.77;;
14760;SDS011;7472;45.396;5.272;2022-08-23T11:00:57;3.08;;;2.15;;
14760;SDS011;7472;45.396;5.272;2022-08-23T11:03:27;2.08;;;1.58;;
14760;SDS011;7472;45.396;5.272;2022-08-23T11:08:42;4.45;;;1.83;;
14760;SDS011;7472;45.396;5.272;2022-08-23T11:13:56;4.47;;;1.67;;
14760;SDS011;7472;45.396;5.272;2022-08-23T11:16:28;2.97;;;1.50;;
14760;SDS011;7472;45.396;5.272;2022-08-23T11:18:56;7.75;;;1.83;;
14760;SDS011;7472;45.396;5.272;2022-08-23T11:21:42;4.70;;;2.03;;
14760;SDS011;7472;45.396;5.272;2022-08-23T11:27:17;4.03;;;2.08;;
14760;SDS011;7472;45.396;5.272;2022-08-23T11:29:51;5.20;;;2.08;;
14760;SDS011;7472;45.396;5.272;2022-08-23T11:32:36;2.50;;;1.52;;
14760;SDS011;7472;45.396;5.272;2022-08-23T11:35:22;3.78;;;1.85;;
14760;SDS011;7472;45.396;5.272;2022-08-23T11:37:55;4.40;;;1.75;;
14760;SDS011;7472;45.396;5.272;2022-08-23T11:40:38;4.97;;;1.85;;
14760;SDS011;7472;45.396;5.272;2022-08-23T11:43:09;3.88;;;1.80;;
14760;SDS011;7472;45.396;5.272;2022-08-23T11:45:40;3.20;;;1.48;;
14760;SDS011;7472;45.396;5.272;2022-08-23T11:48:13;3.10;;;1.55;;
14760;SDS011;7472;45.396;5.272;2022-08-23T11:50:47;8.25;;;2.05;;
14760;SDS011;7472;45.396;5.272;2022-08-23T11:53:25;3.40;;;2.03;;
14760;SDS011;7472;45.396;5.272;2022-08-23T11:58:59;1.95;;;1.65;;
14760;SDS011;7472;45.396;5.272;2022-08-23T12:01:29;2.35;;;1.40;;
14760;SDS011;7472;45.396;5.272;2022-08-23T12:03:58;2.70;;;1.77;;
14760;SDS011;7472;45.396;5.272;2022-08-23T12:06:35;2.83;;;1.58;;
14760;SDS011;7472;45.396;5.272;2022-08-23T12:09:04;1.92;;;1.65;;
14760;SDS011;7472;45.396;5.272;2022-08-23T12:14:34;1.70;;;1.50;;
14760;SDS011;7472;45.396;5.272;2022-08-23T12:17:03;3.15;;;1.60;;
14760;SDS011;7472;45.396;5.272;2022-08-23T12:19:32;2.33;;;1.25;;
14760;SDS011;7472;45.396;5.272;2022-08-23T12:22:05;2.15;;;1.63;;
14760;SDS011;7472;45.396;5.272;2022-08-23T12:24:39;1.88;;;1.58;;
14760;SDS011;7472;45.396;5.272;2022-08-23T12:27:19;3.47;;;1.80;;
14760;SDS011;7472;45.396;5.272;2022-08-23T12:29:53;3.20;;;1.63;;
14760;SDS011;7472;45.396;5.272;2022-08-23T12:32:25;5.38;;;2.05;;
14760;SDS011;7472;45.396;5.272;2022-08-23T12:34:59;2.17;;;1.95;;
14760;SDS011;7472;45.396;5.272;2022-08-23T12:37:29;4.32;;;2.22;;
14760;SDS011;7472;45.396;5.272;2022-08-23T12:42:41;5.35;;;1.80;;
14760;SDS011;7472;45.396;5.272;2022-08-23T12:45:14;3.60;;;1.30;;
14760;SDS011;7472;45.396;5.272;2022-08-23T12:47:53;2.95;;;1.50;;
14760;SDS011;7472;45.396;5.272;2022-08-23T12:50:26;2.95;;;1.65;;
14760;SDS011;7472;45.396;5.272;2022-08-23T12:52:55;2.92;;;1.52;;
14760;SDS011;7472;45.396;5.272;2022-08-23T12:55:28;3.33;;;1.88;;
14760;SDS011;7472;45.396;5.272;2022-08-23T12:57:59;1.92;;;1.50;;
14760;SDS011;7472;45.396;5.272;2022-08-23T13:00:31;2.55;;;1.67;;
14760;SDS011;7472;45.396;5.272;2022-08-23T13:03:01;1.83;;;1.48;;
14760;SDS011;7472;45.396;5.272;2022-08-23T13:05:34;1.58;;;1.48;;
14760;SDS011;7472;45.396;5.272;2022-08-23T13:08:04;3.78;;;1.38;;
14760;SDS011;7472;45.396;5.272;2022-08-23T13:10:32;1.75;;;1.40;;
14760;SDS011;7472;45.396;5.272;2022-08-23T13:13:01;3.75;;;2.15;;
14760;SDS011;7472;45.396;5.272;2022-08-23T13:15:41;3.28;;;1.10;;
14760;SDS011;7472;45.396;5.272;2022-08-23T13:18:09;1.73;;;1.63;;
14760;SDS011;7472;45.396;5.272;2022-08-23T13:20:37;3.90;;;1.80;;
14760;SDS011;7472;45.396;5.272;2022-08-23T13:23:05;4.38;;;1.25;;
14760;SDS011;7472;45.396;5.272;2022-08-23T13:25:34;4.53;;;1.92;;
14760;SDS011;7472;45.396;5.272;2022-08-23T13:28:07;2.78;;;1.80;;
14760;SDS011;7472;45.396;5.272;2022-08-23T13:30:57;4.97;;;2.13;;
14760;SDS011;7472;45.396;5.272;2022-08-23T13:33:28;4.82;;;1.88;;
14760;SDS011;7472;45.396;5.272;2022-08-23T13:36:04;4.93;;;1.90;;
14760;SDS011;7472;45.396;5.272;2022-08-23T13:38:33;4.03;;;1.73;;
14760;SDS011;7472;45.396;5.272;2022-08-23T13:41:02;3.35;;;1.73;;
14760;SDS011;7472;45.396;5.272;2022-08-23T13:43:32;3.75;;;1.60;;
14760;SDS011;7472;45.396;5.272;2022-08-23T13:46:10;3.22;;;1.83;;
14760;SDS011;7472;45.396;5.272;2022-08-23T13:48:43;2.53;;;1.70;;
14760;SDS011;7472;45.396;5.272;2022-08-23T13:51:16;2.47;;;1.52;;
14760;SDS011;7472;45.396;5.272;2022-08-23T13:53:43;5.30;;;1.70;;
14760;SDS011;7472;45.396;5.272;2022-08-23T13:56:12;2.53;;;1.48;;
14760;SDS011;7472;45.396;5.272;2022-08-23T13:58:40;4.68;;;1.63;;
14760;SDS011;7472;45.396;5.272;2022-08-23T14:01:10;1.70;;;1.50;;
14760;SDS011;7472;45.396;5.272;2022-08-23T14:03:41;2.08;;;1.65;;
14760;SDS011;7472;45.396;5.272;2022-08-23T14:06:09;3.67;;;1.88;;
14760;SDS011;7472;45.396;5.272;2022-08-23T14:08:37;2.28;;;1.40;;
14760;SDS011;7472;45.396;5.272;2022-08-23T14:11:05;3.70;;;1.50;;
14760;SDS011;7472;45.396;5.272;2022-08-23T14:13:34;2.13;;;1.63;;
14760;SDS011;7472;45.396;5.272;2022-08-23T14:16:04;5.85;;;1.98;;
14760;SDS011;7472;45.396;5.272;2022-08-23T14:18:33;3.92;;;1.58;;
14760;SDS011;7472;45.396;5.272;2022-08-23T14:21:03;2.95;;;1.67;;
14760;SDS011;7472;45.396;5.272;2022-08-23T14:23:33;5.85;;;1.80;;
14760;SDS011;7472;45.396;5.272;2022-08-23T14:26:01;3.42;;;1.60;;
14760;SDS011;7472;45.396;5.272;2022-08-23T14:28:29;2.88;;;1.60;;
14760;SDS011;7472;45.396;5.272;2022-08-23T14:30:57;7.80;;;1.80;;
14760;SDS011;7472;45.396;5.272;2022-08-23T14:33:24;7.75;;;1.88;;
14760;SDS011;7472;45.396;5.272;2022-08-23T14:35:53;3.20;;;1.58;;
14760;SDS011;7472;45.396;5.272;2022-08-23T14:38:21;5.82;;;1.67;;
14760;SDS011;7472;45.396;5.272;2022-08-23T14:40:50;3.13;;;1.95;;
14760;SDS011;7472;45.396;5.272;2022-08-23T14:43:20;5.00;;;1.83;;
14760;SDS011;7472;45.396;5.272;2022-08-23T14:45:48;4.70;;;1.92;;
14760;SDS011;7472;45.396;5.272;2022-08-23T14:48:16;3.17;;;1.77;;
14760;SDS011;7472;45.396;5.272;2022-08-23T14:50:44;2.30;;;1.50;;
14760;SDS011;7472;45.396;5.272;2022-08-23T14:53:15;2.83;;;1.63;;
14760;SDS011;7472;45.396;5.272;2022-08-23T14:55:43;3.47;;;1.60;;
14760;SDS011;7472;45.396;5.272;2022-08-23T14:58:14;3.83;;;1.60;;
14760;SDS011;7472;45.396;5.272;2022-08-23T15:00:42;4.75;;;1.77;;
14760;SDS011;7472;45.396;5.272;2022-08-23T15:03:09;2.45;;;1.60;;
14760;SDS011;7472;45.396;5.272;2022-08-23T15:05:43;3.45;;;1.60;;
14760;SDS011;7472;45.396;5.272;2022-08-23T15:08:16;6.75;;;1.70;;
14760;SDS011;7472;45.396;5.272;2022-08-23T15:10:48;4.40;;;1.58;;
14760;SDS011;7472;45.396;5.272;2022-08-23T15:13:19;4.03;;;1.65;;
14760;SDS011;7472;45.396;5.272;2022-08-23T15:15:51;2.28;;;1.80;;
14760;SDS011;7472;45.396;5.272;2022-08-23T15:18:27;3.22;;;1.60;;
14760;SDS011;7472;45.396;5.272;2022-08-23T15:20:58;3.10;;;1.52;;
14760;SDS011;7472;45.396;5.272;2022-08-23T15:26:31;1.90;;;1.70;;
14760;SDS011;7472;45.396;5.272;2022-08-23T15:29:07;1.85;;;1.60;;
14760;SDS011;7472;45.396;5.272;2022-08-23T15:31:35;4.00;;;1.60;;
14760;SDS011;7472;45.396;5.272;2022-08-23T15:34:12;1.70;;;1.60;;
14760;SDS011;7472;45.396;5.272;2022-08-23T15:36:42;2.42;;;1.50;;
14760;SDS011;7472;45.396;5.272;2022-08-23T15:51:47;6.10;;;1.85;;